Sault, Francia

08:23 PM CET del 16 Gennaio 2017 (GMT +0100)
D150 | | Change Station

Alt. 1374 ft 44.03 °N, 5.20 °E | Updated 19 minutes ago

Sereno
Sereno
34.2 °F
Sembra 34 °F
N
0.6
Vento Variabile Vento da NO
Gusts 2.5 mph

Oggi
Massima -- | Minima -- °F
--% Possibilità di precip.
Ieri
Massima -- | Minima -- °F
Precip. -- in
Pressione 30.01 in
Visibilità -9999.0 miglia
Nuvole
Raffreddamento del vento 34 °F
Punto di rugiada 19 °F
Umidità 53%
Piovosità 0.00 in
Spessore del manto nevoso Non disponibile.
8:09 AM 5:27 PM
Gobba a levante, 79% visible
METAR LFMO 161900Z AUTO 36025G39KT CAVOK 02/M06 Q1016 NOSIG
Pressione 30.01 in
Visibilità -9999.0 miglia
Nuvole
Raffreddamento del vento 34 °F
Punto di rugiada 19 °F
Umidità 53%
Piovosità 0.00 in
Spessore del manto nevoso Non disponibile.
8:09 AM 5:27 PM
Gobba a levante, 79% visible
METAR LFMO 161900Z AUTO 36025G39KT CAVOK 02/M06 Q1016 NOSIG

Get Your Daily Forecast Email!

Thanks for signing up!

Be on the lookout for a verification email in your inbox.

You'll start receiving the daily forecast at 8 AM.

×

10-Day Weather Forecast

×

Almanac

Astronomia

Jan. 16, 2017 Alba Tramonto
Ora attuale
Crepuscolo civile
Crepuscolo nautico
Crepuscolo astronomico
Luna
Estensione della luce visibile
Lunghezza del giorno
Tomorrow will be .
, % of the Moon is Illuminated

Gli estremi di oggi

Massime Regione Minime Regione

Community

WunderPhotos

Upload Photos

1,962,540 foto caricate!

WunderBlog® & News

Nearby

Qualità dell'aria

  Qualità dell'aria Indice AQ Inquinante
Not available.

Profondità neve

Stazione Profondità Altitudine

Attività sismica

Città  Distanza Mag. Data & Ora
Minimo Magnitudo Mostrato è 2.5.

Temperature delle acque costiere

Località Temperatura

Stations

Stazioni meteo nelle vicinanze

Ubicazione della stazione Temp. Raffreddamento del vento Punto di rugiada Umidità Vento Precip. Alt. Aggiornato Tipo